sensor_id;sensor_type;location;lat;lon;timestamp;P1;durP1;ratioP1;P2;durP2;ratioP2
41249;SDS011;26984;59.928;30.306;2022-11-14T00:00:31;5.43;;;4.80;;
41249;SDS011;26984;59.928;30.306;2022-11-14T00:03:18;6.18;;;5.68;;
41249;SDS011;26984;59.928;30.306;2022-11-14T00:06:05;7.82;;;5.20;;
41249;SDS011;26984;59.928;30.306;2022-11-14T00:08:52;4.78;;;4.28;;
41249;SDS011;26984;59.928;30.306;2022-11-14T00:11:38;5.90;;;4.32;;
41249;SDS011;26984;59.928;30.306;2022-11-14T00:14:24;5.25;;;4.38;;
41249;SDS011;26984;59.928;30.306;2022-11-14T00:17:12;5.82;;;4.28;;
41249;SDS011;26984;59.928;30.306;2022-11-14T00:19:59;6.50;;;5.72;;
41249;SDS011;26984;59.928;30.306;2022-11-14T00:22:45;5.85;;;5.15;;
41249;SDS011;26984;59.928;30.306;2022-11-14T00:25:31;8.52;;;4.47;;
41249;SDS011;26984;59.928;30.306;2022-11-14T00:28:18;6.70;;;4.53;;
41249;SDS011;26984;59.928;30.306;2022-11-14T00:31:04;5.07;;;4.55;;
41249;SDS011;26984;59.928;30.306;2022-11-14T00:33:52;7.43;;;5.35;;
41249;SDS011;26984;59.928;30.306;2022-11-14T00:36:38;5.20;;;4.50;;
41249;SDS011;26984;59.928;30.306;2022-11-14T00:39:24;5.53;;;4.75;;
41249;SDS011;26984;59.928;30.306;2022-11-14T00:42:11;8.02;;;4.50;;
41249;SDS011;26984;59.928;30.306;2022-11-14T00:44:57;5.30;;;4.80;;
41249;SDS011;26984;59.928;30.306;2022-11-14T00:47:43;4.75;;;4.32;;
41249;SDS011;26984;59.928;30.306;2022-11-14T00:50:31;6.53;;;4.75;;
41249;SDS011;26984;59.928;30.306;2022-11-14T00:53:17;6.00;;;5.30;;
41249;SDS011;26984;59.928;30.306;2022-11-14T00:56:05;6.45;;;4.70;;
41249;SDS011;26984;59.928;30.306;2022-11-14T00:58:51;7.72;;;5.07;;
41249;SDS011;26984;59.928;30.306;2022-11-14T01:01:37;5.70;;;5.20;;
41249;SDS011;26984;59.928;30.306;2022-11-14T01:04:24;4.63;;;4.15;;
41249;SDS011;26984;59.928;30.306;2022-11-14T01:07:11;6.03;;;4.78;;
41249;SDS011;26984;59.928;30.306;2022-11-14T01:09:58;4.97;;;4.47;;
41249;SDS011;26984;59.928;30.306;2022-11-14T01:12:44;6.70;;;5.25;;
41249;SDS011;26984;59.928;30.306;2022-11-14T01:15:30;5.70;;;5.05;;
41249;SDS011;26984;59.928;30.306;2022-11-14T01:18:19;5.93;;;4.90;;
41249;SDS011;26984;59.928;30.306;2022-11-14T01:23:54;5.35;;;4.85;;
41249;SDS011;26984;59.928;30.306;2022-11-14T01:26:40;5.05;;;4.47;;
41249;SDS011;26984;59.928;30.306;2022-11-14T01:29:27;6.60;;;5.53;;
41249;SDS011;26984;59.928;30.306;2022-11-14T01:32:13;5.47;;;4.93;;
41249;SDS011;26984;59.928;30.306;2022-11-14T01:34:59;9.15;;;5.28;;
41249;SDS011;26984;59.928;30.306;2022-11-14T01:37:45;7.65;;;4.88;;
41249;SDS011;26984;59.928;30.306;2022-11-14T01:40:33;6.93;;;5.22;;
41249;SDS011;26984;59.928;30.306;2022-11-14T01:43:26;6.13;;;4.72;;
41249;SDS011;26984;59.928;30.306;2022-11-14T01:46:14;5.72;;;5.10;;
41249;SDS011;26984;59.928;30.306;2022-11-14T01:49:10;6.40;;;4.88;;
41249;SDS011;26984;59.928;30.306;2022-11-14T01:52:03;6.10;;;4.90;;
41249;SDS011;26984;59.928;30.306;2022-11-14T01:54:54;5.18;;;4.22;;
41249;SDS011;26984;59.928;30.306;2022-11-14T02:00:31;5.03;;;4.32;;
41249;SDS011;26984;59.928;30.306;2022-11-14T02:03:18;5.50;;;4.32;;
41249;SDS011;26984;59.928;30.306;2022-11-14T02:06:06;5.43;;;4.43;;
41249;SDS011;26984;59.928;30.306;2022-11-14T02:08:54;5.70;;;4.75;;
41249;SDS011;26984;59.928;30.306;2022-11-14T02:11:42;8.90;;;4.88;;
41249;SDS011;26984;59.928;30.306;2022-11-14T02:14:32;7.03;;;4.45;;
41249;SDS011;26984;59.928;30.306;2022-11-14T02:20:15;4.93;;;4.32;;
41249;SDS011;26984;59.928;30.306;2022-11-14T02:23:03;5.57;;;3.92;;
41249;SDS011;26984;59.928;30.306;2022-11-14T02:25:49;6.70;;;4.63;;
41249;SDS011;26984;59.928;30.306;2022-11-14T02:28:36;5.65;;;4.78;;
41249;SDS011;26984;59.928;30.306;2022-11-14T02:31:22;4.50;;;4.10;;
41249;SDS011;26984;59.928;30.306;2022-11-14T02:34:08;7.88;;;4.38;;
41249;SDS011;26984;59.928;30.306;2022-11-14T02:36:56;7.10;;;4.32;;
41249;SDS011;26984;59.928;30.306;2022-11-14T02:39:43;5.72;;;4.68;;
41249;SDS011;26984;59.928;30.306;2022-11-14T02:42:29;5.93;;;4.80;;
41249;SDS011;26984;59.928;30.306;2022-11-14T02:45:15;6.78;;;5.03;;
41249;SDS011;26984;59.928;30.306;2022-11-14T02:48:03;6.93;;;5.10;;
41249;SDS011;26984;59.928;30.306;2022-11-14T02:50:49;6.35;;;5.22;;
41249;SDS011;26984;59.928;30.306;2022-11-14T02:53:37;7.43;;;4.80;;
41249;SDS011;26984;59.928;30.306;2022-11-14T02:56:23;6.25;;;4.88;;
41249;SDS011;26984;59.928;30.306;2022-11-14T02:59:10;5.45;;;4.68;;
41249;SDS011;26984;59.928;30.306;2022-11-14T03:01:56;8.70;;;5.50;;
41249;SDS011;26984;59.928;30.306;2022-11-14T03:04:42;8.85;;;5.78;;
41249;SDS011;26984;59.928;30.306;2022-11-14T03:07:29;7.07;;;5.00;;
41249;SDS011;26984;59.928;30.306;2022-11-14T03:10:19;13.60;;;12.60;;
41249;SDS011;26984;59.928;30.306;2022-11-14T03:13:05;9.70;;;5.75;;
41249;SDS011;26984;59.928;30.306;2022-11-14T03:15:51;5.75;;;4.93;;
41249;SDS011;26984;59.928;30.306;2022-11-14T03:18:37;10.07;;;6.78;;
41249;SDS011;26984;59.928;30.306;2022-11-14T03:21:24;8.68;;;5.43;;
41249;SDS011;26984;59.928;30.306;2022-11-14T03:24:10;9.27;;;8.38;;
41249;SDS011;26984;59.928;30.306;2022-11-14T03:26:57;6.95;;;4.93;;
41249;SDS011;26984;59.928;30.306;2022-11-14T03:29:45;6.22;;;5.10;;
41249;SDS011;26984;59.928;30.306;2022-11-14T03:32:31;6.25;;;5.07;;
41249;SDS011;26984;59.928;30.306;2022-11-14T03:35:17;5.55;;;4.72;;
41249;SDS011;26984;59.928;30.306;2022-11-14T03:38:04;6.72;;;4.88;;
41249;SDS011;26984;59.928;30.306;2022-11-14T03:40:50;9.02;;;5.68;;
41249;SDS011;26984;59.928;30.306;2022-11-14T03:43:38;6.50;;;5.57;;
41249;SDS011;26984;59.928;30.306;2022-11-14T03:46:24;7.82;;;6.63;;
41249;SDS011;26984;59.928;30.306;2022-11-14T03:49:11;9.85;;;5.47;;
41249;SDS011;26984;59.928;30.306;2022-11-14T03:51:57;8.07;;;4.93;;
41249;SDS011;26984;59.928;30.306;2022-11-14T03:54:43;9.63;;;5.45;;
41249;SDS011;26984;59.928;30.306;2022-11-14T03:57:29;9.18;;;5.85;;
41249;SDS011;26984;59.928;30.306;2022-11-14T04:00:17;11.23;;;5.60;;
41249;SDS011;26984;59.928;30.306;2022-11-14T04:03:03;10.53;;;5.43;;
41249;SDS011;26984;59.928;30.306;2022-11-14T04:05:49;6.82;;;5.00;;
41249;SDS011;26984;59.928;30.306;2022-11-14T04:08:38;6.70;;;5.03;;
41249;SDS011;26984;59.928;30.306;2022-11-14T04:11:24;8.50;;;5.75;;
41249;SDS011;26984;59.928;30.306;2022-11-14T04:14:11;8.50;;;5.82;;
41249;SDS011;26984;59.928;30.306;2022-11-14T04:16:59;8.32;;;5.18;;
41249;SDS011;26984;59.928;30.306;2022-11-14T04:19:45;9.43;;;6.18;;
41249;SDS011;26984;59.928;30.306;2022-11-14T04:22:31;9.60;;;6.20;;
41249;SDS011;26984;59.928;30.306;2022-11-14T04:25:17;10.82;;;5.43;;
41249;SDS011;26984;59.928;30.306;2022-11-14T04:28:04;8.45;;;5.63;;
41249;SDS011;26984;59.928;30.306;2022-11-14T04:30:50;7.57;;;5.28;;
41249;SDS011;26984;59.928;30.306;2022-11-14T04:33:37;11.68;;;6.38;;
41249;SDS011;26984;59.928;30.306;2022-11-14T04:36:24;11.70;;;5.50;;
41249;SDS011;26984;59.928;30.306;2022-11-14T04:39:10;7.72;;;6.25;;
41249;SDS011;26984;59.928;30.306;2022-11-14T04:41:56;9.98;;;6.32;;
41249;SDS011;26984;59.928;30.306;2022-11-14T04:44:42;6.03;;;5.05;;
41249;SDS011;26984;59.928;30.306;2022-11-14T04:47:29;6.30;;;5.32;;
41249;SDS011;26984;59.928;30.306;2022-11-14T04:50:17;6.25;;;5.40;;
41249;SDS011;26984;59.928;30.306;2022-11-14T04:53:03;8.75;;;5.60;;
41249;SDS011;26984;59.928;30.306;2022-11-14T04:55:49;12.25;;;6.30;;
41249;SDS011;26984;59.928;30.306;2022-11-14T04:58:36;10.48;;;5.47;;
41249;SDS011;26984;59.928;30.306;2022-11-14T05:01:22;10.32;;;5.93;;
41249;SDS011;26984;59.928;30.306;2022-11-14T05:04:08;11.85;;;7.80;;
41249;SDS011;26984;59.928;30.306;2022-11-14T05:06:56;9.65;;;7.20;;
41249;SDS011;26984;59.928;30.306;2022-11-14T05:09:42;10.38;;;6.68;;
41249;SDS011;26984;59.928;30.306;2022-11-14T05:12:29;11.13;;;6.47;;
41249;SDS011;26984;59.928;30.306;2022-11-14T05:15:15;9.52;;;6.00;;
41249;SDS011;26984;59.928;30.306;2022-11-14T05:18:02;8.70;;;5.80;;
41249;SDS011;26984;59.928;30.306;2022-11-14T05:20:49;8.20;;;5.88;;
41249;SDS011;26984;59.928;30.306;2022-11-14T05:23:36;9.63;;;8.00;;
41249;SDS011;26984;59.928;30.306;2022-11-14T05:26:22;9.30;;;7.70;;
41249;SDS011;26984;59.928;30.306;2022-11-14T05:29:08;11.07;;;8.95;;
41249;SDS011;26984;59.928;30.306;2022-11-14T05:31:55;12.70;;;7.30;;
41249;SDS011;26984;59.928;30.306;2022-11-14T05:34:41;10.13;;;8.80;;
41249;SDS011;26984;59.928;30.306;2022-11-14T05:37:28;10.80;;;8.93;;
41249;SDS011;26984;59.928;30.306;2022-11-14T05:40:16;10.73;;;6.68;;
41249;SDS011;26984;59.928;30.306;2022-11-14T05:43:03;12.33;;;7.40;;
41249;SDS011;26984;59.928;30.306;2022-11-14T05:45:50;9.43;;;6.95;;
41249;SDS011;26984;59.928;30.306;2022-11-14T05:48:36;15.38;;;10.40;;
41249;SDS011;26984;59.928;30.306;2022-11-14T05:51:23;13.25;;;7.10;;
41249;SDS011;26984;59.928;30.306;2022-11-14T05:54:09;11.15;;;8.38;;
41249;SDS011;26984;59.928;30.306;2022-11-14T05:56:57;16.73;;;9.70;;
41249;SDS011;26984;59.928;30.306;2022-11-14T05:59:43;13.90;;;11.07;;
41249;SDS011;26984;59.928;30.306;2022-11-14T06:02:30;8.85;;;7.15;;
41249;SDS011;26984;59.928;30.306;2022-11-14T06:05:16;18.60;;;9.77;;
41249;SDS011;26984;59.928;30.306;2022-11-14T06:08:03;18.23;;;11.20;;
41249;SDS011;26984;59.928;30.306;2022-11-14T06:10:49;19.25;;;9.90;;
41249;SDS011;26984;59.928;30.306;2022-11-14T06:13:37;11.55;;;8.77;;
41249;SDS011;26984;59.928;30.306;2022-11-14T06:16:24;9.27;;;7.80;;
41249;SDS011;26984;59.928;30.306;2022-11-14T06:19:11;18.65;;;9.32;;
41249;SDS011;26984;59.928;30.306;2022-11-14T06:21:57;7.50;;;6.30;;
41249;SDS011;26984;59.928;30.306;2022-11-14T06:24:45;18.45;;;8.07;;
41249;SDS011;26984;59.928;30.306;2022-11-14T06:27:31;23.45;;;7.68;;
41249;SDS011;26984;59.928;30.306;2022-11-14T06:30:19;15.30;;;6.70;;
41249;SDS011;26984;59.928;30.306;2022-11-14T06:33:06;11.38;;;7.72;;
41249;SDS011;26984;59.928;30.306;2022-11-14T06:35:56;7.75;;;7.03;;
41249;SDS011;26984;59.928;30.306;2022-11-14T06:38:43;8.30;;;6.38;;
41249;SDS011;26984;59.928;30.306;2022-11-14T06:41:30;11.70;;;8.75;;
41249;SDS011;26984;59.928;30.306;2022-11-14T06:44:16;11.48;;;9.65;;
41249;SDS011;26984;59.928;30.306;2022-11-14T06:47:04;12.80;;;7.55;;
41249;SDS011;26984;59.928;30.306;2022-11-14T06:49:50;10.57;;;7.63;;
41249;SDS011;26984;59.928;30.306;2022-11-14T06:52:36;11.48;;;7.50;;
41249;SDS011;26984;59.928;30.306;2022-11-14T06:55:22;11.18;;;7.63;;
41249;SDS011;26984;59.928;30.306;2022-11-14T06:58:09;9.80;;;6.82;;
41249;SDS011;26984;59.928;30.306;2022-11-14T07:00:55;13.43;;;7.20;;
41249;SDS011;26984;59.928;30.306;2022-11-14T07:03:48;7.50;;;5.78;;
41249;SDS011;26984;59.928;30.306;2022-11-14T07:06:35;13.63;;;6.57;;
41249;SDS011;26984;59.928;30.306;2022-11-14T07:09:21;7.97;;;6.72;;
41249;SDS011;26984;59.928;30.306;2022-11-14T07:12:08;12.23;;;5.95;;
41249;SDS011;26984;59.928;30.306;2022-11-14T07:14:54;8.82;;;7.13;;
41249;SDS011;26984;59.928;30.306;2022-11-14T07:17:40;7.15;;;6.32;;
41249;SDS011;26984;59.928;30.306;2022-11-14T07:20:28;6.20;;;5.47;;
41249;SDS011;26984;59.928;30.306;2022-11-14T07:23:15;8.10;;;6.72;;
41249;SDS011;26984;59.928;30.306;2022-11-14T07:26:01;9.40;;;6.38;;
41249;SDS011;26984;59.928;30.306;2022-11-14T07:28:51;10.90;;;9.82;;
41249;SDS011;26984;59.928;30.306;2022-11-14T07:31:38;8.15;;;6.00;;
41249;SDS011;26984;59.928;30.306;2022-11-14T07:34:25;11.48;;;6.80;;
41249;SDS011;26984;59.928;30.306;2022-11-14T07:37:13;10.90;;;6.47;;
41249;SDS011;26984;59.928;30.306;2022-11-14T07:39:59;10.10;;;9.32;;
41249;SDS011;26984;59.928;30.306;2022-11-14T07:42:46;10.93;;;10.02;;
41249;SDS011;26984;59.928;30.306;2022-11-14T07:45:32;10.85;;;9.93;;
41249;SDS011;26984;59.928;30.306;2022-11-14T07:48:19;12.18;;;11.38;;
41249;SDS011;26984;59.928;30.306;2022-11-14T07:51:07;10.07;;;5.97;;
41249;SDS011;26984;59.928;30.306;2022-11-14T07:53:59;7.97;;;6.68;;
41249;SDS011;26984;59.928;30.306;2022-11-14T07:56:46;10.90;;;8.65;;
41249;SDS011;26984;59.928;30.306;2022-11-14T07:59:32;6.72;;;6.13;;
41249;SDS011;26984;59.928;30.306;2022-11-14T08:02:18;7.50;;;5.88;;
41249;SDS011;26984;59.928;30.306;2022-11-14T08:05:05;9.98;;;6.22;;
41249;SDS011;26984;59.928;30.306;2022-11-14T08:07:52;11.82;;;10.77;;
41249;SDS011;26984;59.928;30.306;2022-11-14T08:10:40;11.43;;;10.38;;
41249;SDS011;26984;59.928;30.306;2022-11-14T08:13:26;7.25;;;6.35;;
41249;SDS011;26984;59.928;30.306;2022-11-14T08:16:13;6.25;;;5.22;;
41249;SDS011;26984;59.928;30.306;2022-11-14T08:19:00;7.75;;;6.95;;
41249;SDS011;26984;59.928;30.306;2022-11-14T08:21:46;9.57;;;6.88;;
41249;SDS011;26984;59.928;30.306;2022-11-14T08:24:33;13.48;;;6.80;;
41249;SDS011;26984;59.928;30.306;2022-11-14T08:27:20;4.93;;;4.53;;
41249;SDS011;26984;59.928;30.306;2022-11-14T08:30:07;8.05;;;7.25;;
41249;SDS011;26984;59.928;30.306;2022-11-14T08:32:54;9.40;;;5.43;;
41249;SDS011;26984;59.928;30.306;2022-11-14T08:35:41;5.50;;;5.07;;
41249;SDS011;26984;59.928;30.306;2022-11-14T08:38:27;13.05;;;11.57;;
41249;SDS011;26984;59.928;30.306;2022-11-14T08:41:13;5.63;;;4.88;;
41249;SDS011;26984;59.928;30.306;2022-11-14T08:44:01;12.05;;;11.15;;
41249;SDS011;26984;59.928;30.306;2022-11-14T08:46:48;23.70;;;22.27;;
41249;SDS011;26984;59.928;30.306;2022-11-14T08:49:35;9.25;;;8.55;;
41249;SDS011;26984;59.928;30.306;2022-11-14T08:52:21;8.68;;;7.00;;
41249;SDS011;26984;59.928;30.306;2022-11-14T08:55:07;9.63;;;8.40;;
41249;SDS011;26984;59.928;30.306;2022-11-14T08:57:54;6.80;;;5.40;;
41249;SDS011;26984;59.928;30.306;2022-11-14T09:00:41;6.00;;;5.30;;
41249;SDS011;26984;59.928;30.306;2022-11-14T09:03:28;6.70;;;6.20;;
41249;SDS011;26984;59.928;30.306;2022-11-14T09:06:14;5.13;;;4.72;;
41249;SDS011;26984;59.928;30.306;2022-11-14T09:09:01;6.75;;;4.32;;
41249;SDS011;26984;59.928;30.306;2022-11-14T09:11:47;8.43;;;6.05;;
41249;SDS011;26984;59.928;30.306;2022-11-14T09:14:33;4.43;;;4.03;;
41249;SDS011;26984;59.928;30.306;2022-11-14T09:17:21;5.28;;;3.92;;
41249;SDS011;26984;59.928;30.306;2022-11-14T09:20:08;7.05;;;5.43;;
41249;SDS011;26984;59.928;30.306;2022-11-14T09:22:56;7.03;;;4.35;;
41249;SDS011;26984;59.928;30.306;2022-11-14T09:25:42;7.32;;;5.35;;
41249;SDS011;26984;59.928;30.306;2022-11-14T09:28:29;6.07;;;5.32;;
41249;SDS011;26984;59.928;30.306;2022-11-14T09:31:15;5.65;;;4.43;;
41249;SDS011;26984;59.928;30.306;2022-11-14T09:34:03;4.75;;;4.35;;
41249;SDS011;26984;59.928;30.306;2022-11-14T09:36:49;7.18;;;4.82;;
41249;SDS011;26984;59.928;30.306;2022-11-14T09:39:36;5.28;;;4.80;;
41249;SDS011;26984;59.928;30.306;2022-11-14T09:42:28;10.35;;;5.60;;
41249;SDS011;26984;59.928;30.306;2022-11-14T09:45:26;8.20;;;5.53;;
41249;SDS011;26984;59.928;30.306;2022-11-14T09:48:13;9.48;;;4.60;;
41249;SDS011;26984;59.928;30.306;2022-11-14T09:51:05;8.68;;;4.97;;
41249;SDS011;26984;59.928;30.306;2022-11-14T09:53:58;10.68;;;5.78;;
41249;SDS011;26984;59.928;30.306;2022-11-14T09:56:49;8.90;;;5.43;;
41249;SDS011;26984;59.928;30.306;2022-11-14T09:59:36;4.70;;;4.00;;
41249;SDS011;26984;59.928;30.306;2022-11-14T10:02:32;6.13;;;4.90;;
41249;SDS011;26984;59.928;30.306;2022-11-14T10:08:48;5.05;;;4.55;;
41249;SDS011;26984;59.928;30.306;2022-11-14T10:11:46;4.28;;;3.88;;
41249;SDS011;26984;59.928;30.306;2022-11-14T10:14:44;4.82;;;3.38;;
41249;SDS011;26984;59.928;30.306;2022-11-14T10:20:56;8.88;;;4.70;;
41249;SDS011;26984;59.928;30.306;2022-11-14T10:23:49;8.63;;;5.97;;
41249;SDS011;26984;59.928;30.306;2022-11-14T10:26:45;4.95;;;4.18;;
41249;SDS011;26984;59.928;30.306;2022-11-14T10:29:47;6.28;;;4.68;;
41249;SDS011;26984;59.928;30.306;2022-11-14T10:32:52;6.75;;;4.38;;
41249;SDS011;26984;59.928;30.306;2022-11-14T10:35:54;6.20;;;5.60;;
41249;SDS011;26984;59.928;30.306;2022-11-14T10:38:47;4.95;;;4.45;;
41249;SDS011;26984;59.928;30.306;2022-11-14T10:41:39;6.18;;;4.53;;
41249;SDS011;26984;59.928;30.306;2022-11-14T10:44:28;13.90;;;6.38;;
41249;SDS011;26984;59.928;30.306;2022-11-14T10:47:22;11.38;;;5.50;;
41249;SDS011;26984;59.928;30.306;2022-11-14T10:50:25;7.85;;;5.15;;
41249;SDS011;26984;59.928;30.306;2022-11-14T10:53:18;8.98;;;5.75;;
41249;SDS011;26984;59.928;30.306;2022-11-14T10:56:13;10.27;;;6.53;;
41249;SDS011;26984;59.928;30.306;2022-11-14T10:58:59;10.20;;;7.22;;
41249;SDS011;26984;59.928;30.306;2022-11-14T11:01:52;14.85;;;5.97;;
41249;SDS011;26984;59.928;30.306;2022-11-14T11:04:39;8.05;;;6.30;;
41249;SDS011;26984;59.928;30.306;2022-11-14T11:07:26;10.32;;;7.07;;
41249;SDS011;26984;59.928;30.306;2022-11-14T11:10:44;9.52;;;6.15;;
41249;SDS011;26984;59.928;30.306;2022-11-14T11:13:52;8.07;;;5.82;;
41249;SDS011;26984;59.928;30.306;2022-11-14T11:16:40;6.80;;;6.00;;
41249;SDS011;26984;59.928;30.306;2022-11-14T11:19:26;8.27;;;5.40;;
41249;SDS011;26984;59.928;30.306;2022-11-14T11:22:25;7.15;;;5.05;;
41249;SDS011;26984;59.928;30.306;2022-11-14T11:25:23;9.07;;;5.60;;
41249;SDS011;26984;59.928;30.306;2022-11-14T11:28:14;12.55;;;6.65;;
41249;SDS011;26984;59.928;30.306;2022-11-14T11:31:10;8.65;;;5.18;;
41249;SDS011;26984;59.928;30.306;2022-11-14T11:34:00;8.23;;;5.75;;
41249;SDS011;26984;59.928;30.306;2022-11-14T11:36:49;10.48;;;6.18;;
41249;SDS011;26984;59.928;30.306;2022-11-14T11:39:42;11.60;;;6.57;;
41249;SDS011;26984;59.928;30.306;2022-11-14T11:42:48;7.40;;;6.70;;
41249;SDS011;26984;59.928;30.306;2022-11-14T11:45:42;7.40;;;6.70;;
41249;SDS011;26984;59.928;30.306;2022-11-14T11:48:36;11.75;;;7.25;;
41249;SDS011;26984;59.928;30.306;2022-11-14T11:51:23;9.20;;;6.22;;
41249;SDS011;26984;59.928;30.306;2022-11-14T11:54:13;8.27;;;6.47;;
41249;SDS011;26984;59.928;30.306;2022-11-14T11:57:06;10.05;;;6.43;;
41249;SDS011;26984;59.928;30.306;2022-11-14T12:00:00;13.63;;;8.30;;
41249;SDS011;26984;59.928;30.306;2022-11-14T12:02:50;11.27;;;8.13;;
41249;SDS011;26984;59.928;30.306;2022-11-14T12:05:44;12.68;;;8.10;;
41249;SDS011;26984;59.928;30.306;2022-11-14T12:08:36;23.05;;;7.90;;
41249;SDS011;26984;59.928;30.306;2022-11-14T12:11:31;15.45;;;7.50;;
41249;SDS011;26984;59.928;30.306;2022-11-14T12:14:30;16.27;;;7.82;;
41249;SDS011;26984;59.928;30.306;2022-11-14T12:20:48;17.48;;;13.02;;
41249;SDS011;26984;59.928;30.306;2022-11-14T12:27:34;18.17;;;8.57;;
41249;SDS011;26984;59.928;30.306;2022-11-14T12:30:33;16.17;;;8.50;;
41249;SDS011;26984;59.928;30.306;2022-11-14T12:33:22;13.85;;;8.70;;
41249;SDS011;26984;59.928;30.306;2022-11-14T12:36:14;23.73;;;9.70;;
41249;SDS011;26984;59.928;30.306;2022-11-14T12:39:01;19.42;;;10.35;;
41249;SDS011;26984;59.928;30.306;2022-11-14T12:41:48;17.20;;;10.60;;
41249;SDS011;26984;59.928;30.306;2022-11-14T12:44:35;13.82;;;8.23;;
41249;SDS011;26984;59.928;30.306;2022-11-14T12:47:22;10.00;;;7.53;;
41249;SDS011;26984;59.928;30.306;2022-11-14T12:53:37;11.43;;;7.50;;
41249;SDS011;26984;59.928;30.306;2022-11-14T12:59:38;17.35;;;9.23;;
41249;SDS011;26984;59.928;30.306;2022-11-14T13:02:48;18.77;;;10.13;;
41249;SDS011;26984;59.928;30.306;2022-11-14T13:05:56;18.00;;;9.13;;
41249;SDS011;26984;59.928;30.306;2022-11-14T13:09:02;19.23;;;10.55;;
41249;SDS011;26984;59.928;30.306;2022-11-14T13:12:24;21.33;;;9.02;;
41249;SDS011;26984;59.928;30.306;2022-11-14T13:15:32;22.85;;;10.23;;
41249;SDS011;26984;59.928;30.306;2022-11-14T13:18:51;20.48;;;10.48;;
41249;SDS011;26984;59.928;30.306;2022-11-14T13:22:31;19.77;;;9.73;;
41249;SDS011;26984;59.928;30.306;2022-11-14T13:25:23;22.35;;;10.32;;
41249;SDS011;26984;59.928;30.306;2022-11-14T13:31:41;21.20;;;9.23;;
41249;SDS011;26984;59.928;30.306;2022-11-14T13:34:32;14.63;;;8.13;;
41249;SDS011;26984;59.928;30.306;2022-11-14T13:37:35;12.30;;;8.35;;
41249;SDS011;26984;59.928;30.306;2022-11-14T13:40:42;11.65;;;8.32;;
41249;SDS011;26984;59.928;30.306;2022-11-14T13:43:42;18.52;;;9.40;;
41249;SDS011;26984;59.928;30.306;2022-11-14T13:46:43;16.30;;;12.57;;
41249;SDS011;26984;59.928;30.306;2022-11-14T13:49:51;19.58;;;8.95;;
41249;SDS011;26984;59.928;30.306;2022-11-14T13:52:44;19.58;;;11.23;;
41249;SDS011;26984;59.928;30.306;2022-11-14T13:55:36;17.17;;;9.57;;
41249;SDS011;26984;59.928;30.306;2022-11-14T13:58:40;21.13;;;9.98;;
41249;SDS011;26984;59.928;30.306;2022-11-14T14:01:49;23.70;;;8.93;;
41249;SDS011;26984;59.928;30.306;2022-11-14T14:04:49;17.20;;;10.18;;
41249;SDS011;26984;59.928;30.306;2022-11-14T14:11:04;17.92;;;8.35;;
41249;SDS011;26984;59.928;30.306;2022-11-14T14:14:18;27.25;;;9.27;;
41249;SDS011;26984;59.928;30.306;2022-11-14T14:17:20;21.45;;;9.00;;
41249;SDS011;26984;59.928;30.306;2022-11-14T14:20:16;21.98;;;9.77;;
41249;SDS011;26984;59.928;30.306;2022-11-14T14:23:18;22.73;;;9.70;;
41249;SDS011;26984;59.928;30.306;2022-11-14T14:26:16;17.92;;;8.80;;
41249;SDS011;26984;59.928;30.306;2022-11-14T14:29:13;19.13;;;8.88;;
41249;SDS011;26984;59.928;30.306;2022-11-14T14:32:10;17.83;;;9.23;;
41249;SDS011;26984;59.928;30.306;2022-11-14T14:34:57;13.82;;;8.52;;
41249;SDS011;26984;59.928;30.306;2022-11-14T14:37:48;18.25;;;8.85;;
41249;SDS011;26984;59.928;30.306;2022-11-14T14:40:36;20.30;;;10.23;;
41249;SDS011;26984;59.928;30.306;2022-11-14T14:43:25;28.27;;;9.07;;
41249;SDS011;26984;59.928;30.306;2022-11-14T14:46:25;20.70;;;8.32;;
41249;SDS011;26984;59.928;30.306;2022-11-14T14:49:16;21.83;;;9.02;;
41249;SDS011;26984;59.928;30.306;2022-11-14T14:52:17;21.00;;;7.82;;
41249;SDS011;26984;59.928;30.306;2022-11-14T14:55:06;21.25;;;8.75;;
41249;SDS011;26984;59.928;30.306;2022-11-14T14:58:13;15.70;;;8.65;;
41249;SDS011;26984;59.928;30.306;2022-11-14T15:01:01;16.23;;;7.82;;
41249;SDS011;26984;59.928;30.306;2022-11-14T15:03:53;20.05;;;8.70;;
41249;SDS011;26984;59.928;30.306;2022-11-14T15:06:43;13.77;;;8.68;;
41249;SDS011;26984;59.928;30.306;2022-11-14T15:09:30;14.82;;;8.85;;
41249;SDS011;26984;59.928;30.306;2022-11-14T15:12:16;17.42;;;10.07;;
41249;SDS011;26984;59.928;30.306;2022-11-14T15:15:03;20.75;;;9.68;;
41249;SDS011;26984;59.928;30.306;2022-11-14T15:18:04;20.40;;;11.10;;
41249;SDS011;26984;59.928;30.306;2022-11-14T15:21:08;21.42;;;11.02;;
41249;SDS011;26984;59.928;30.306;2022-11-14T15:23:58;19.40;;;12.50;;
41249;SDS011;26984;59.928;30.306;2022-11-14T15:26:46;21.58;;;12.10;;
41249;SDS011;26984;59.928;30.306;2022-11-14T15:29:34;18.65;;;11.05;;
41249;SDS011;26984;59.928;30.306;2022-11-14T15:32:21;14.15;;;10.38;;
41249;SDS011;26984;59.928;30.306;2022-11-14T15:35:09;21.23;;;12.13;;
41249;SDS011;26984;59.928;30.306;2022-11-14T15:38:19;20.38;;;11.90;;
41249;SDS011;26984;59.928;30.306;2022-11-14T15:44:27;15.00;;;10.25;;
41249;SDS011;26984;59.928;30.306;2022-11-14T15:47:17;14.30;;;9.38;;
41249;SDS011;26984;59.928;30.306;2022-11-14T15:53:14;18.90;;;11.18;;
41249;SDS011;26984;59.928;30.306;2022-11-14T15:56:08;19.17;;;11.82;;
41249;SDS011;26984;59.928;30.306;2022-11-14T15:58:57;20.95;;;11.27;;
41249;SDS011;26984;59.928;30.306;2022-11-14T16:01:44;23.13;;;11.90;;
41249;SDS011;26984;59.928;30.306;2022-11-14T16:04:33;23.75;;;11.48;;
41249;SDS011;26984;59.928;30.306;2022-11-14T16:07:21;15.50;;;10.18;;
41249;SDS011;26984;59.928;30.306;2022-11-14T16:10:12;19.42;;;11.95;;
41249;SDS011;26984;59.928;30.306;2022-11-14T16:13:01;21.73;;;11.32;;
41249;SDS011;26984;59.928;30.306;2022-11-14T16:15:50;18.63;;;10.68;;
41249;SDS011;26984;59.928;30.306;2022-11-14T16:18:36;22.20;;;10.35;;
41249;SDS011;26984;59.928;30.306;2022-11-14T16:21:22;9.95;;;7.07;;
41249;SDS011;26984;59.928;30.306;2022-11-14T16:24:10;14.15;;;10.20;;
41249;SDS011;26984;59.928;30.306;2022-11-14T16:27:01;12.18;;;8.73;;
41249;SDS011;26984;59.928;30.306;2022-11-14T16:29:48;13.57;;;12.20;;
41249;SDS011;26984;59.928;30.306;2022-11-14T16:32:34;16.13;;;12.13;;
41249;SDS011;26984;59.928;30.306;2022-11-14T16:35:21;19.38;;;11.30;;
41249;SDS011;26984;59.928;30.306;2022-11-14T16:38:09;17.42;;;11.82;;
41249;SDS011;26984;59.928;30.306;2022-11-14T16:40:58;22.27;;;12.02;;
41249;SDS011;26984;59.928;30.306;2022-11-14T16:43:44;18.98;;;12.23;;
41249;SDS011;26984;59.928;30.306;2022-11-14T16:46:32;17.02;;;10.00;;
41249;SDS011;26984;59.928;30.306;2022-11-14T16:49:18;19.58;;;11.32;;
41249;SDS011;26984;59.928;30.306;2022-11-14T16:52:05;18.75;;;13.48;;
41249;SDS011;26984;59.928;30.306;2022-11-14T16:54:53;24.05;;;13.65;;
41249;SDS011;26984;59.928;30.306;2022-11-14T16:57:39;17.35;;;12.48;;
41249;SDS011;26984;59.928;30.306;2022-11-14T17:00:25;21.02;;;13.02;;
41249;SDS011;26984;59.928;30.306;2022-11-14T17:03:13;20.35;;;11.88;;
41249;SDS011;26984;59.928;30.306;2022-11-14T17:08:52;20.08;;;12.52;;
41249;SDS011;26984;59.928;30.306;2022-11-14T17:11:40;22.50;;;12.60;;
41249;SDS011;26984;59.928;30.306;2022-11-14T17:14:28;23.92;;;14.85;;
41249;SDS011;26984;59.928;30.306;2022-11-14T17:17:15;24.58;;;12.50;;
41249;SDS011;26984;59.928;30.306;2022-11-14T17:20:06;24.52;;;12.52;;
41249;SDS011;26984;59.928;30.306;2022-11-14T17:22:54;27.02;;;13.18;;